createdAt,value
2022-08-05T00:01:50.707Z,100153.61
2022-08-05T00:04:21.498Z,100156.97
2022-08-05T00:06:52.064Z,100148.53
2022-08-05T00:09:21.223Z,100155.56
2022-08-05T00:11:55.618Z,100155.56
2022-08-05T00:14:22.103Z,100154.23
2022-08-05T00:16:54.027Z,100155.63
2022-08-05T00:19:24.956Z,100152.03
2022-08-05T00:21:54.933Z,100156.73
2022-08-05T00:24:30.633Z,100156.81
2022-08-05T00:26:55.138Z,100157.73
2022-08-05T00:29:25.299Z,100158.55
2022-08-05T00:32:12.301Z,100155.70
2022-08-05T00:34:53.478Z,100155.61
2022-08-05T00:37:10.880Z,100155.61
2022-08-05T00:39:28.883Z,100158.77
2022-08-05T00:41:59.638Z,100160.73
2022-08-05T00:44:30.608Z,100154.30
2022-08-05T00:47:02.103Z,100155.70
2022-08-05T00:49:32.715Z,100151.94
2022-08-05T00:52:01.627Z,100151.94
2022-08-05T00:54:30.993Z,100152.56
2022-08-05T00:57:00.158Z,100152.31
2022-08-05T00:59:34.613Z,100156.08
2022-08-05T01:02:00.153Z,100151.94
2022-08-05T01:04:30.226Z,100154.03
2022-08-05T01:06:59.601Z,100158.83
2022-08-05T01:09:30.477Z,100155.33
2022-08-05T01:12:04.885Z,100155.33
2022-08-05T01:14:38.978Z,100160.25
2022-08-05T01:17:44.217Z,100167.23
2022-08-05T01:20:30.722Z,100158.98
2022-08-05T01:23:15.113Z,100158.98
2022-08-05T01:26:00.859Z,100166.61
2022-08-05T01:28:49.440Z,100171.06
2022-08-05T01:31:45.009Z,100171.06
2022-08-05T01:34:16.176Z,100176.48
2022-08-05T01:36:52.845Z,100181.98
2022-08-05T01:39:46.750Z,100180.44
2022-08-05T01:41:56.667Z,100178.25
2022-08-05T01:44:34.387Z,100186.77
2022-08-05T01:47:00.014Z,100189.95
2022-08-05T01:50:00.330Z,100194.79
2022-08-05T01:52:17.444Z,100188.72
2022-08-05T01:54:46.137Z,100188.72
2022-08-05T01:58:18.881Z,100193.18
2022-08-05T01:59:47.253Z,100193.18
2022-08-05T02:02:15.914Z,100189.05
2022-08-05T02:04:49.538Z,100189.30
2022-08-05T02:07:22.161Z,100182.81
2022-08-05T02:09:50.099Z,100181.59
2022-08-05T02:12:40.635Z,100182.20
2022-08-05T02:15:12.720Z,100183.00
2022-08-05T02:18:28.478Z,100186.96
2022-08-05T02:20:20.483Z,100186.96
2022-08-05T02:22:51.829Z,100186.89
2022-08-05T02:25:32.987Z,100172.77
2022-08-05T02:28:01.588Z,100172.77
2022-08-05T02:30:51.828Z,100180.72
2022-08-05T02:33:24.491Z,100177.75
2022-08-05T02:35:59.125Z,100174.84
2022-08-05T02:38:35.502Z,100181.94
2022-08-05T02:41:14.745Z,100172.64
2022-08-05T02:43:34.824Z,100172.64
2022-08-05T02:46:06.784Z,100183.55
2022-08-05T02:48:38.697Z,100183.55
2022-08-05T02:51:10.681Z,100180.17
2022-08-05T02:53:43.027Z,100181.81
2022-08-05T02:56:15.933Z,100181.81
2022-08-05T02:58:51.585Z,100184.40
2022-08-05T03:01:20.121Z,100189.63
2022-08-05T03:04:08.844Z,100189.63
2022-08-05T03:06:56.096Z,100195.65
2022-08-05T03:08:55.110Z,100195.65
2022-08-05T03:11:56.296Z,100197.85
2022-08-05T03:14:03.104Z,100197.62
2022-08-05T03:16:29.268Z,100197.62
2022-08-05T03:19:01.124Z,100195.05
2022-08-05T03:21:33.198Z,100191.42
2022-08-05T03:24:03.513Z,100200.86
2022-08-05T03:26:32.945Z,100195.80
2022-08-05T03:29:02.448Z,100195.80
2022-08-05T03:31:56.107Z,100188.22
2022-08-05T03:34:06.682Z,100188.22
2022-08-05T03:36:37.421Z,100186.82
2022-08-05T03:39:13.146Z,100186.82
2022-08-05T03:41:45.384Z,100186.42
2022-08-05T03:44:12.783Z,100193.86
2022-08-05T03:46:43.497Z,100193.88
2022-08-05T03:49:14.969Z,100183.41
2022-08-05T03:52:36.558Z,100183.41
2022-08-05T03:55:49.743Z,100194.86
2022-08-05T03:57:16.736Z,100192.95
2022-08-05T03:59:54.540Z,100191.23
2022-08-05T04:02:38.796Z,100191.23
2022-08-05T04:04:51.952Z,100189.13
2022-08-05T04:07:25.175Z,100193.76
2022-08-05T04:09:55.721Z,100186.26
2022-08-05T04:12:25.041Z,100181.53
2022-08-05T04:14:57.741Z,100178.67
2022-08-05T04:17:36.409Z,100180.04
2022-08-05T04:19:58.719Z,100174.31
2022-08-05T04:22:27.874Z,100175.87
2022-08-05T04:24:57.071Z,100175.87
2022-08-05T04:27:41.721Z,100170.67
2022-08-05T04:29:58.739Z,100174.86
2022-08-05T04:32:31.947Z,100174.37
2022-08-05T04:35:00.349Z,100171.88
2022-08-05T04:38:01.627Z,100171.88
2022-08-05T04:40:00.582Z,100174.98
2022-08-05T04:42:31.334Z,100176.96
2022-08-05T04:45:01.059Z,100175.28
2022-08-05T04:47:31.217Z,100170.38
2022-08-05T04:50:11.127Z,100168.97
2022-08-05T04:52:34.188Z,100168.97
2022-08-05T04:55:13.789Z,100170.73
2022-08-05T04:57:37.291Z,100170.16
2022-08-05T05:00:09.189Z,100162.06
2022-08-05T05:02:41.827Z,100173.19
2022-08-05T05:05:26.388Z,100178.12
2022-08-05T05:07:40.328Z,100178.12
2022-08-05T05:10:11.097Z,100190.60
2022-08-05T05:12:42.179Z,100186.13
2022-08-05T05:15:12.139Z,100186.13
2022-08-05T05:17:55.787Z,100173.52
2022-08-05T05:20:18.151Z,100172.38
2022-08-05T05:22:49.190Z,100172.38
2022-08-05T05:25:18.386Z,100177.70
2022-08-05T05:27:48.594Z,100172.72
2022-08-05T05:30:29.226Z,100177.62
2022-08-05T05:32:49.758Z,100191.91
2022-08-05T05:35:19.915Z,100191.91
2022-08-05T05:38:01.429Z,100199.77
2022-08-05T05:40:30.248Z,100199.66
2022-08-05T05:43:02.104Z,100199.66
2022-08-05T05:45:32.093Z,100205.12
2022-08-05T05:48:06.593Z,100194.77
2022-08-05T05:50:32.937Z,100194.77
2022-08-05T05:53:03.314Z,100196.94
2022-08-05T05:55:51.851Z,100200.06
2022-08-05T05:58:05.580Z,100200.06
2022-08-05T06:00:34.711Z,100204.88
2022-08-05T06:03:40.672Z,100202.83
2022-08-05T06:05:35.950Z,100201.69
2022-08-05T06:08:05.347Z,100205.27
2022-08-05T06:10:37.368Z,100213.23
2022-08-05T06:13:05.781Z,100213.23
2022-08-05T06:16:27.281Z,100208.26
2022-08-05T06:18:05.727Z,100217.61
2022-08-05T06:20:35.233Z,100217.61
2022-08-05T06:23:04.736Z,100221.98
2022-08-05T06:26:13.744Z,100232.94
2022-08-05T06:28:12.440Z,100229.27
2022-08-05T06:30:35.603Z,100229.27
2022-08-05T06:33:04.705Z,100232.33
2022-08-05T06:36:05.818Z,100232.33
2022-08-05T06:38:11.132Z,100248.78
2022-08-05T06:40:37.212Z,100246.01
2022-08-05T06:43:08.232Z,100246.01
2022-08-05T06:46:03.057Z,100252.47
2022-08-05T06:48:47.161Z,100251.33
2022-08-05T06:50:40.665Z,100256.39
2022-08-05T06:53:19.666Z,100256.39
2022-08-05T06:55:42.022Z,100251.86
2022-08-05T06:58:30.097Z,100266.72
2022-08-05T07:00:42.504Z,100266.72
2022-08-05T07:03:13.552Z,100256.09
2022-08-05T07:05:44.575Z,100256.09
2022-08-05T07:08:15.387Z,100261.05
2022-08-05T07:10:52.953Z,100267.30
2022-08-05T07:13:59.153Z,100264.75
2022-08-05T07:18:08.196Z,100265.58
2022-08-05T07:18:52.453Z,100273.81
2022-08-05T07:21:25.903Z,100266.84
2022-08-05T07:23:52.967Z,100268.56
2022-08-05T07:26:25.006Z,100273.54
2022-08-05T07:28:52.926Z,100266.22
2022-08-05T07:31:53.923Z,100274.80
2022-08-05T07:33:53.460Z,100270.11
2022-08-05T07:36:22.543Z,100268.59
2022-08-05T07:38:54.700Z,100276.38
2022-08-05T07:42:13.614Z,100283.24
2022-08-05T07:43:57.073Z,100285.89
2022-08-05T07:46:31.289Z,100285.89
2022-08-05T07:49:05.896Z,100277.94
2022-08-05T07:51:41.110Z,100284.27
2022-08-05T07:54:08.446Z,100284.27
2022-08-05T07:57:01.477Z,100275.36
2022-08-05T07:59:11.038Z,100276.92
2022-08-05T08:01:51.681Z,100273.67
2022-08-05T08:04:12.192Z,100273.33
2022-08-05T08:06:41.513Z,100268.27
2022-08-05T08:09:12.247Z,100268.27
2022-08-05T08:11:48.288Z,100275.45
2022-08-05T08:14:12.390Z,100269.59
2022-08-05T08:16:51.131Z,100268.36
2022-08-05T08:20:10.116Z,100266.44
2022-08-05T08:21:44.975Z,100258.59
2022-08-05T08:24:17.170Z,100249.91
2022-08-05T08:26:49.545Z,100249.91
2022-08-05T08:29:29.366Z,100261.72
2022-08-05T08:31:50.068Z,100261.72
2022-08-05T08:34:30.886Z,100256.47
2022-08-05T08:36:55.813Z,100266.78
2022-08-05T08:39:23.766Z,100266.78
2022-08-05T08:42:00.137Z,100261.16
2022-08-05T08:45:24.013Z,100267.44
2022-08-05T08:46:59.997Z,100256.68
2022-08-05T08:50:12.880Z,100247.39
2022-08-05T08:52:13.248Z,100247.39
2022-08-05T08:54:36.950Z,100242.88
2022-08-05T08:57:11.241Z,100237.88
2022-08-05T08:59:47.343Z,100233.27
2022-08-05T09:02:16.713Z,100233.27
2022-08-05T09:04:57.892Z,100226.16
2022-08-05T09:07:28.441Z,100226.16
2022-08-05T09:09:50.553Z,100228.23
2022-08-05T09:12:20.676Z,100231.27
2022-08-05T09:14:58.318Z,100231.27
2022-08-05T09:17:41.327Z,100222.55
2022-08-05T09:20:01.777Z,100221.16
2022-08-05T09:22:31.806Z,100221.16
2022-08-05T09:25:01.637Z,100218.61
2022-08-05T09:28:05.719Z,100218.61
2022-08-05T09:30:16.289Z,100220.33
2022-08-05T09:32:46.461Z,100224.26
2022-08-05T09:35:26.465Z,100227.60
2022-08-05T09:38:17.362Z,100222.48
2022-08-05T09:40:52.731Z,100221.89
2022-08-05T09:43:14.929Z,100213.53
2022-08-05T09:46:06.253Z,100213.53
2022-08-05T09:48:34.447Z,100214.38
2022-08-05T09:51:15.150Z,100224.52
2022-08-05T09:54:00.401Z,100224.52
2022-08-05T09:56:32.617Z,100222.88
2022-08-05T09:59:05.005Z,100226.57
2022-08-05T10:01:41.288Z,100226.16
2022-08-05T10:04:16.192Z,100212.30
2022-08-05T10:06:59.270Z,100210.69
2022-08-05T10:09:29.829Z,100210.69
2022-08-05T10:12:30.374Z,100204.38
2022-08-05T10:14:41.966Z,100183.83
2022-08-05T10:17:37.177Z,100183.83
2022-08-05T10:20:04.533Z,100185.72
2022-08-05T10:22:29.729Z,100185.72
2022-08-05T10:24:49.338Z,100187.68
2022-08-05T10:27:20.362Z,100190.50
2022-08-05T10:30:41.137Z,100189.15
2022-08-05T10:32:54.149Z,100196.51
2022-08-05T10:34:53.971Z,100195.03
2022-08-05T10:37:37.155Z,100193.52
2022-08-05T10:39:58.931Z,100196.15
2022-08-05T10:42:34.065Z,100196.15
2022-08-05T10:45:00.763Z,100197.61
2022-08-05T10:47:36.500Z,100189.41
2022-08-05T10:50:31.873Z,100201.76
2022-08-05T10:53:00.561Z,100197.38
2022-08-05T10:55:32.874Z,100197.38
2022-08-05T10:58:12.063Z,100193.74
2022-08-05T11:00:45.797Z,100198.89
2022-08-05T11:03:24.234Z,100192.59
2022-08-05T11:05:49.082Z,100192.59
2022-08-05T11:08:36.546Z,100195.45
2022-08-05T11:11:00.898Z,100195.45
2022-08-05T11:13:40.653Z,100193.48
2022-08-05T11:16:34.048Z,100180.84
2022-08-05T11:20:11.120Z,100180.84
2022-08-05T11:22:02.387Z,100180.44
2022-08-05T11:24:32.524Z,100166.27
2022-08-05T11:27:51.537Z,100163.03
2022-08-05T11:30:03.921Z,100153.91
2022-08-05T11:32:34.646Z,100152.37
2022-08-05T11:35:05.476Z,100144.44
2022-08-05T11:38:30.297Z,100157.66
2022-08-05T11:40:18.826Z,100157.66
2022-08-05T11:42:49.988Z,100170.14
2022-08-05T11:45:26.824Z,100174.47
2022-08-05T11:47:54.494Z,100175.59
2022-08-05T11:50:21.548Z,100171.45
2022-08-05T11:52:54.406Z,100171.45
2022-08-05T11:55:21.677Z,100172.31
2022-08-05T11:58:10.385Z,100187.82
2022-08-05T12:00:30.990Z,100184.08
2022-08-05T12:03:01.596Z,100187.53
2022-08-05T12:05:36.080Z,100197.14
2022-08-05T12:08:03.381Z,100197.14
2022-08-05T12:10:43.567Z,100203.72
2022-08-05T12:13:15.999Z,100195.86
2022-08-05T12:15:38.694Z,100198.12
2022-08-05T12:18:11.009Z,100182.34
2022-08-05T12:20:39.178Z,100182.34
2022-08-05T12:23:12.270Z,100195.81
2022-08-05T12:25:56.670Z,100195.81
2022-08-05T12:28:39.114Z,100201.02
2022-08-05T12:31:08.200Z,100200.06
2022-08-05T12:33:38.594Z,100200.06
2022-08-05T12:36:09.869Z,100215.56
2022-08-05T12:38:41.408Z,100224.39
2022-08-05T12:41:17.793Z,100241.22
2022-08-05T12:43:52.710Z,100241.22
2022-08-05T12:46:28.868Z,100221.06
2022-08-05T12:49:00.443Z,100221.06
2022-08-05T12:52:13.117Z,100211.09
2022-08-05T12:54:04.574Z,100211.09
2022-08-05T12:56:37.415Z,100214.41
2022-08-05T12:59:46.936Z,100214.41
2022-08-05T13:02:07.569Z,100215.78
2022-08-05T13:04:34.407Z,100229.98
2022-08-05T13:07:10.440Z,100230.83
2022-08-05T13:09:38.572Z,100242.72
2022-08-05T13:12:13.217Z,100247.95
2022-08-05T13:14:46.503Z,100257.05
2022-08-05T13:17:34.997Z,100257.05
2022-08-05T13:20:02.401Z,100271.92
2022-08-05T13:22:32.735Z,100277.84
2022-08-05T13:25:08.079Z,100277.84
2022-08-05T13:27:43.036Z,100278.44
2022-08-05T13:30:33.512Z,100266.55
2022-08-05T13:32:51.938Z,100266.55
2022-08-05T13:35:42.837Z,100290.89
2022-08-05T13:37:55.498Z,100290.89
2022-08-05T13:40:36.620Z,100312.28
2022-08-05T13:42:55.715Z,100336.22
2022-08-05T13:45:25.118Z,100375.22
2022-08-05T13:48:08.558Z,100366.77
2022-08-05T13:50:26.787Z,100380.56
2022-08-05T13:52:56.270Z,100380.56
2022-08-05T13:55:40.791Z,100358.80
2022-08-05T13:57:56.642Z,100376.42
2022-08-05T14:00:26.921Z,100376.42
2022-08-05T14:02:58.028Z,100348.64
2022-08-05T14:05:47.999Z,100348.64
2022-08-05T14:08:05.839Z,100351.89
2022-08-05T14:10:31.281Z,100361.14
2022-08-05T14:13:01.253Z,100366.98
2022-08-05T14:16:08.319Z,100391.69
2022-08-05T14:18:03.968Z,100391.69
2022-08-05T14:20:34.678Z,100399.30
2022-08-05T14:23:03.984Z,100399.30
2022-08-05T14:25:34.821Z,100409.33
2022-08-05T14:28:06.044Z,100404.08
2022-08-05T14:30:35.455Z,100382.52
2022-08-05T14:33:05.383Z,100374.67
2022-08-05T14:35:36.329Z,100362.09
2022-08-05T14:38:05.902Z,100362.09
2022-08-05T14:40:36.746Z,100348.25
2022-08-05T14:43:06.698Z,100344.96
2022-08-05T14:45:37.492Z,100339.55
2022-08-05T14:48:08.840Z,100339.55
2022-08-05T14:50:40.638Z,100324.87
2022-08-05T14:53:08.930Z,100323.48
2022-08-05T14:55:39.653Z,100323.48
2022-08-05T14:58:13.643Z,100319.80
2022-08-05T15:00:59.760Z,100322.28
2022-08-05T15:03:14.149Z,100322.28
2022-08-05T15:06:12.970Z,100323.34
2022-08-05T15:08:17.954Z,100326.55
2022-08-05T15:10:46.215Z,100327.08
2022-08-05T15:13:16.259Z,100336.52
2022-08-05T15:15:56.523Z,100336.52
2022-08-05T15:20:53.863Z,100321.78
2022-08-05T15:23:33.415Z,100334.35
2022-08-05T15:26:03.119Z,100334.35
2022-08-05T15:28:32.572Z,100321.27
2022-08-05T15:31:03.703Z,100313.13
2022-08-05T15:34:05.428Z,100300.89
2022-08-05T15:36:05.937Z,100298.91
2022-08-05T15:38:48.105Z,100289.67
2022-08-05T15:41:23.260Z,100286.12
2022-08-05T15:43:45.330Z,100275.57
2022-08-05T15:46:09.559Z,100278.17
2022-08-05T15:48:38.803Z,100278.17
2022-08-05T15:51:09.720Z,100283.34
2022-08-05T15:53:50.329Z,100283.34
2022-08-05T15:56:14.384Z,100271.76
2022-08-05T15:58:41.870Z,100275.78
2022-08-05T16:01:16.186Z,100273.98
2022-08-05T16:03:48.323Z,100282.44
2022-08-05T16:06:20.117Z,100282.44
2022-08-05T16:08:50.876Z,100283.49
2022-08-05T16:11:21.129Z,100283.95
2022-08-05T16:13:51.615Z,100283.95
2022-08-05T16:16:21.347Z,100282.46
2022-08-05T16:18:52.659Z,100283.92
2022-08-05T16:21:59.326Z,100281.45
2022-08-05T16:23:55.385Z,100270.21
2022-08-05T16:26:26.610Z,100270.21
2022-08-05T16:28:54.759Z,100272.03
2022-08-05T16:31:24.193Z,100276.70
2022-08-05T16:33:54.625Z,100276.70
2022-08-05T16:36:24.147Z,100262.14
2022-08-05T16:38:55.528Z,100262.14
2022-08-05T16:42:13.815Z,100266.94
2022-08-05T16:43:56.436Z,100266.94
2022-08-05T16:46:25.829Z,100267.40
2022-08-05T16:48:55.557Z,100267.40
2022-08-05T16:51:30.860Z,100265.64
2022-08-05T16:54:05.178Z,100261.43
2022-08-05T16:56:27.910Z,100261.43
2022-08-05T16:58:57.779Z,100262.44
2022-08-05T17:01:27.151Z,100269.84
2022-08-05T17:03:57.954Z,100269.84
2022-08-05T17:06:27.101Z,100275.69
2022-08-05T17:08:56.304Z,100281.03
2022-08-05T17:11:26.842Z,100291.22
2022-08-05T17:14:05.381Z,100291.22
2022-08-05T17:16:32.822Z,100295.25
2022-08-05T17:18:58.180Z,100295.25
2022-08-05T17:21:36.314Z,100315.02
2022-08-05T17:24:04.267Z,100315.02
2022-08-05T17:26:28.874Z,100322.39
2022-08-05T17:28:58.217Z,100326.77
2022-08-05T17:31:56.733Z,100323.81
2022-08-05T17:33:58.924Z,100326.23
2022-08-05T17:36:33.989Z,100334.52
2022-08-05T17:39:00.368Z,100334.52
2022-08-05T17:42:19.190Z,100325.66
2022-08-05T17:44:00.730Z,100325.66
2022-08-05T17:46:31.779Z,100319.69
2022-08-05T17:49:00.998Z,100322.09
2022-08-05T17:51:30.373Z,100322.09
2022-08-05T17:54:01.215Z,100324.56
2022-08-05T17:56:30.327Z,100319.48
2022-08-05T17:59:01.270Z,100332.30
2022-08-05T18:01:49.458Z,100337.88
2022-08-05T18:04:04.754Z,100331.85
2022-08-05T18:06:33.149Z,100331.85
2022-08-05T18:09:03.415Z,100342.39
2022-08-05T18:11:33.952Z,100357.94
2022-08-05T18:14:06.759Z,100357.94
2022-08-05T18:16:50.956Z,100359.42
2022-08-05T18:19:09.793Z,100355.73
2022-08-05T18:22:08.265Z,100345.72
2022-08-05T18:24:10.067Z,100341.81
2022-08-05T18:26:40.853Z,100350.46
2022-08-05T18:29:10.915Z,100350.46
2022-08-05T18:31:43.154Z,100349.63
2022-08-05T18:34:12.282Z,100342.96
2022-08-05T18:36:43.639Z,100346.03
2022-08-05T18:39:41.962Z,100344.73
2022-08-05T18:41:55.215Z,100344.73
2022-08-05T18:44:14.765Z,100345.54
2022-08-05T18:46:45.593Z,100352.73
2022-08-05T18:49:44.505Z,100347.00
2022-08-05T18:52:33.000Z,100347.94
2022-08-05T18:54:52.342Z,100347.27
2022-08-05T18:57:23.985Z,100347.27
2022-08-05T19:00:03.474Z,100344.05
2022-08-05T19:02:28.021Z,100338.94
2022-08-05T19:05:02.167Z,100338.94
2022-08-05T19:07:29.678Z,100345.08
2022-08-05T19:10:01.383Z,100339.63
2022-08-05T19:12:32.272Z,100346.14
2022-08-05T19:15:03.047Z,100346.14
2022-08-05T19:17:59.445Z,100343.38
2022-08-05T19:20:03.142Z,100343.38
2022-08-05T19:22:32.737Z,100344.71
2022-08-05T19:25:02.732Z,100336.83
2022-08-05T19:27:31.818Z,100339.66
2022-08-05T19:30:02.803Z,100333.76
2022-08-05T19:32:32.146Z,100336.88
2022-08-05T19:35:05.863Z,100336.88
2022-08-05T19:37:47.073Z,100328.72
2022-08-05T19:40:10.240Z,100329.91
2022-08-05T19:42:36.511Z,100327.39
2022-08-05T19:45:07.958Z,100327.82
2022-08-05T19:47:38.158Z,100327.82
2022-08-05T19:50:12.013Z,100329.72
2022-08-05T19:52:38.644Z,100325.47
2022-08-05T19:56:11.793Z,100327.05
2022-08-05T19:57:48.901Z,100323.99
2022-08-05T20:00:10.859Z,100325.83
2022-08-05T20:02:41.524Z,100328.70
2022-08-05T20:05:16.722Z,100328.70
2022-08-05T20:07:47.899Z,100324.73
2022-08-05T20:10:14.217Z,100318.27
2022-08-05T20:12:49.062Z,100318.27
2022-08-05T20:15:48.043Z,100308.37
2022-08-05T20:17:52.668Z,100308.37
2022-08-05T20:20:23.205Z,100318.14
2022-08-05T20:22:52.930Z,100310.05
2022-08-05T20:25:23.273Z,100310.05
2022-08-05T20:27:52.536Z,100304.75
2022-08-05T20:30:21.936Z,100302.58
2022-08-05T20:32:52.792Z,100309.73
2022-08-05T20:35:21.963Z,100309.73
2022-08-05T20:38:05.785Z,100299.45
2022-08-05T20:40:22.127Z,100309.65
2022-08-05T20:42:51.282Z,100300.64
2022-08-05T20:45:21.321Z,100300.53
2022-08-05T20:47:52.078Z,100297.97
2022-08-05T20:50:21.150Z,100297.97
2022-08-05T20:52:52.535Z,100297.18
2022-08-05T20:55:54.700Z,100295.94
2022-08-05T20:57:53.252Z,100295.94
2022-08-05T21:00:49.594Z,100299.92
2022-08-05T21:02:59.124Z,100298.09
2022-08-05T21:05:48.098Z,100286.94
2022-08-05T21:08:00.799Z,100280.75
2022-08-05T21:10:30.019Z,100279.86
2022-08-05T21:13:10.278Z,100288.65
2022-08-05T21:15:33.728Z,100287.37
2022-08-05T21:18:01.190Z,100287.37
2022-08-05T21:20:32.747Z,100289.33
2022-08-05T21:23:01.203Z,100288.09
2022-08-05T21:25:33.934Z,100285.72
2022-08-05T21:28:03.712Z,100288.70
2022-08-05T21:30:32.896Z,100288.22
2022-08-05T21:33:02.219Z,100282.59
2022-08-05T21:35:43.817Z,100278.55
2022-08-05T21:38:04.171Z,100278.55
2022-08-05T21:40:35.012Z,100281.20
2022-08-05T21:43:05.570Z,100279.01
2022-08-05T21:45:56.198Z,100274.13
2022-08-05T21:48:08.055Z,100283.73
2022-08-05T21:50:37.414Z,100288.88
2022-08-05T21:53:17.405Z,100288.88
2022-08-05T21:56:01.440Z,100284.58
2022-08-05T21:58:11.671Z,100284.58
2022-08-05T22:00:41.177Z,100285.86
2022-08-05T22:03:13.455Z,100276.88
2022-08-05T22:05:49.214Z,100275.72
2022-08-05T22:08:22.177Z,100275.72
2022-08-05T22:10:44.965Z,100272.41
2022-08-05T22:14:18.209Z,100272.41
2022-08-05T22:16:01.498Z,100279.59
2022-08-05T22:18:19.514Z,100270.70
2022-08-05T22:20:51.594Z,100270.70
2022-08-05T22:24:03.272Z,100274.05
2022-08-05T22:26:25.700Z,100278.47
2022-08-05T22:28:55.878Z,100275.54
2022-08-05T22:31:25.716Z,100271.08
2022-08-05T22:34:00.751Z,100271.08
2022-08-05T22:36:27.507Z,100273.23
2022-08-05T22:38:58.141Z,100280.13
2022-08-05T22:42:11.549Z,100274.83
2022-08-05T22:43:59.738Z,100272.23
2022-08-05T22:46:28.796Z,100272.23
2022-08-05T22:48:59.235Z,100269.19
2022-08-05T22:52:02.723Z,100262.83
2022-08-05T22:53:59.792Z,100268.55
2022-08-05T22:56:30.250Z,100264.36
2022-08-05T22:59:04.181Z,100265.27
2022-08-05T23:02:03.913Z,100269.95
2022-08-05T23:04:03.581Z,100265.06
2022-08-05T23:06:34.266Z,100260.31
2022-08-05T23:09:27.194Z,100260.31
2022-08-05T23:11:37.677Z,100265.89
2022-08-05T23:14:08.529Z,100267.59
2022-08-05T23:16:57.193Z,100269.94
2022-08-05T23:19:28.003Z,100269.94
2022-08-05T23:21:57.426Z,100263.17
2022-08-05T23:24:27.650Z,100265.77
2022-08-05T23:26:56.743Z,100266.58
2022-08-05T23:29:26.739Z,100268.48
2022-08-05T23:31:57.606Z,100265.92
2022-08-05T23:34:26.952Z,100262.98
2022-08-05T23:36:56.074Z,100264.98
2022-08-05T23:39:44.358Z,100264.98
2022-08-05T23:41:57.820Z,100260.84
2022-08-05T23:44:31.061Z,100260.84
2022-08-05T23:46:58.189Z,100264.12
2022-08-05T23:49:33.896Z,100263.98
2022-08-05T23:52:16.380Z,100263.98
2022-08-05T23:54:47.248Z,100258.78
2022-08-05T23:57:17.408Z,100266.70
